createdAt,value
2023-07-09T00:00:48.450Z,36.15
2023-07-09T00:06:59.398Z,37.92
2023-07-09T00:13:04.605Z,36.08
2023-07-09T00:19:14.913Z,36.03
2023-07-09T00:25:18.948Z,32.67
2023-07-09T00:31:24.504Z,32.55
2023-07-09T00:37:29.349Z,33.00
2023-07-09T00:43:34.538Z,31.55
2023-07-09T00:49:43.203Z,36.35
2023-07-09T00:55:48.912Z,32.90
2023-07-09T01:01:52.789Z,32.65
2023-07-09T01:07:59.744Z,32.85
2023-07-09T01:14:04.918Z,32.40
2023-07-09T01:20:13.748Z,35.47
2023-07-09T01:26:20.144Z,31.35
2023-07-09T01:32:24.252Z,35.03
2023-07-09T01:38:31.590Z,33.90
2023-07-09T01:44:36.797Z,32.50
2023-07-09T01:50:42.597Z,28.85
2023-07-09T01:56:46.302Z,29.60
2023-07-09T02:02:51.549Z,27.15
2023-07-09T02:08:55.370Z,27.38
2023-07-09T02:14:59.121Z,29.65
2023-07-09T02:21:04.136Z,31.30
2023-07-09T02:27:10.900Z,29.98
2023-07-09T02:33:14.386Z,26.15
2023-07-09T02:39:19.421Z,24.60
2023-07-09T02:45:23.071Z,29.23
2023-07-09T02:51:28.093Z,23.35
2023-07-09T02:57:33.010Z,25.83
2023-07-09T03:03:36.585Z,23.30
2023-07-09T03:09:40.210Z,23.63
2023-07-09T03:15:45.164Z,22.95
2023-07-09T03:21:48.765Z,21.48
2023-07-09T03:27:52.351Z,21.92
2023-07-09T03:33:57.383Z,22.00
2023-07-09T03:40:00.959Z,19.58
2023-07-09T03:46:04.731Z,21.20
2023-07-09T03:52:10.357Z,24.45
2023-07-09T03:58:13.910Z,24.30
2023-07-09T04:04:21.562Z,27.98
2023-07-09T04:10:26.956Z,30.63
2023-07-09T04:16:30.638Z,29.75
2023-07-09T04:22:34.240Z,27.85
2023-07-09T04:28:39.115Z,32.55
2023-07-09T04:34:42.785Z,29.42
2023-07-09T04:40:46.281Z,28.00
2023-07-09T04:46:51.489Z,29.73
2023-07-09T04:52:55.034Z,24.77
2023-07-09T04:58:58.632Z,29.50
2023-07-09T05:05:03.694Z,24.55
2023-07-09T05:11:07.175Z,23.75
2023-07-09T05:17:10.864Z,21.95
2023-07-09T05:23:15.698Z,19.08
2023-07-09T05:29:19.286Z,16.50
2023-07-09T05:35:22.893Z,13.20
2023-07-09T05:41:28.248Z,12.98
2023-07-09T05:47:31.776Z,10.82
2023-07-09T05:53:35.542Z,9.02
2023-07-09T05:59:40.536Z,11.77
2023-07-09T06:05:44.684Z,9.88
2023-07-09T06:11:48.454Z,9.38
2023-07-09T06:17:53.576Z,10.98
2023-07-09T06:23:57.060Z,11.05
2023-07-09T06:30:00.560Z,10.35
2023-07-09T06:36:06.340Z,9.45
2023-07-09T06:42:10.063Z,7.10
2023-07-09T06:48:15.847Z,8.27
2023-07-09T06:54:20.821Z,7.70
2023-07-09T07:00:24.577Z,5.15
2023-07-09T07:06:36.599Z,6.75
2023-07-09T07:12:46.975Z,3.92
2023-07-09T07:18:53.192Z,4.25
2023-07-09T07:24:56.934Z,6.30
2023-07-09T07:31:02.950Z,8.45
2023-07-09T07:37:07.207Z,7.05
2023-07-09T07:43:10.691Z,4.95
2023-07-09T07:49:15.534Z,4.82
2023-07-09T07:55:20.730Z,6.38
2023-07-09T08:01:24.309Z,9.43
2023-07-09T08:07:30.216Z,6.75
2023-07-09T08:13:34.819Z,6.55
2023-07-09T08:19:47.326Z,6.00
2023-07-09T08:25:56.811Z,8.15
2023-07-09T08:32:00.318Z,6.38
2023-07-09T08:38:04.060Z,8.02
2023-07-09T08:44:14.824Z,5.68
2023-07-09T08:50:21.216Z,6.88
2023-07-09T08:56:24.867Z,3.67
2023-07-09T09:02:36.133Z,4.47
2023-07-09T09:08:41.810Z,5.57
2023-07-09T09:14:46.299Z,5.65
2023-07-09T09:20:57.769Z,5.13
2023-07-09T09:27:01.939Z,4.93
2023-07-09T09:33:12.521Z,3.75
2023-07-09T09:39:19.206Z,5.75
2023-07-09T09:45:24.274Z,4.20
2023-07-09T09:51:27.972Z,4.70
2023-07-09T09:57:32.927Z,4.30
2023-07-09T10:03:43.875Z,5.18
2023-07-09T10:09:50.358Z,12.25
2023-07-09T10:16:02.895Z,8.80
2023-07-09T10:22:08.040Z,13.48
2023-07-09T10:28:28.848Z,8.02
2023-07-09T10:34:40.773Z,9.38
2023-07-09T10:40:46.313Z,10.20
2023-07-09T10:46:55.113Z,14.90
2023-07-09T10:53:05.410Z,11.73
2023-07-09T10:59:14.337Z,9.93
2023-07-09T11:05:18.110Z,9.38
2023-07-09T11:11:27.527Z,8.07
2023-07-09T11:17:32.476Z,8.90
2023-07-09T11:23:46.970Z,9.23
2023-07-09T11:29:58.602Z,8.68
2023-07-09T11:36:09.876Z,7.90
2023-07-09T11:42:33.383Z,8.75
2023-07-09T11:48:38.410Z,9.63
2023-07-09T11:54:41.937Z,9.38
2023-07-09T12:00:46.822Z,11.48
2023-07-09T12:06:51.955Z,10.07
2023-07-09T12:12:59.111Z,6.38
2023-07-09T12:19:02.593Z,7.70
2023-07-09T12:25:21.313Z,6.35
2023-07-09T12:31:28.822Z,6.05
2023-07-09T12:37:34.060Z,9.38
2023-07-09T12:43:38.979Z,6.72
2023-07-09T12:49:44.053Z,6.07
2023-07-09T12:55:50.258Z,4.82
2023-07-09T13:02:03.701Z,5.82
2023-07-09T13:08:07.418Z,6.03
2023-07-09T13:14:19.089Z,7.78
2023-07-09T13:20:31.621Z,6.00
2023-07-09T13:26:41.221Z,6.78
2023-07-09T13:32:52.626Z,4.63
2023-07-09T13:38:57.991Z,5.28
2023-07-09T13:45:03.921Z,4.80
2023-07-09T13:51:18.672Z,4.53
2023-07-09T13:57:25.782Z,3.45
2023-07-09T14:03:32.422Z,3.25
2023-07-09T14:09:40.322Z,3.38
2023-07-09T14:15:47.433Z,5.03
2023-07-09T14:21:51.701Z,4.65
2023-07-09T14:27:58.538Z,3.78
2023-07-09T14:34:25.023Z,3.58
2023-07-09T14:40:32.110Z,4.90
2023-07-09T14:46:37.216Z,3.53
2023-07-09T14:52:43.491Z,3.28
2023-07-09T14:58:51.413Z,3.78
2023-07-09T15:04:57.936Z,4.47
2023-07-09T15:11:05.149Z,4.63
2023-07-09T15:17:08.943Z,5.57
2023-07-09T15:23:15.247Z,3.80
2023-07-09T15:29:20.320Z,3.90
2023-07-09T15:35:29.802Z,2.53
2023-07-09T15:41:42.253Z,3.95
2023-07-09T15:47:49.195Z,2.35
2023-07-09T15:53:52.696Z,4.30
2023-07-09T15:59:58.945Z,2.80
2023-07-09T16:06:05.002Z,3.20
2023-07-09T16:12:14.790Z,3.53
2023-07-09T16:18:19.058Z,5.38
2023-07-09T16:24:25.929Z,4.07
2023-07-09T16:30:30.587Z,3.65
2023-07-09T16:36:34.842Z,3.72
2023-07-09T16:42:42.397Z,2.53
2023-07-09T16:48:47.500Z,3.53
2023-07-09T16:54:52.488Z,2.78
2023-07-09T17:00:58.881Z,3.42
2023-07-09T17:07:04.276Z,2.08
2023-07-09T17:13:15.125Z,1.92
2023-07-09T17:19:24.708Z,3.72
2023-07-09T17:25:33.430Z,3.95
2023-07-09T17:31:40.227Z,3.80
2023-07-09T17:37:54.503Z,3.47
2023-07-09T17:43:58.381Z,5.40
2023-07-09T17:50:03.532Z,1.83
2023-07-09T17:56:21.841Z,3.75
2023-07-09T18:02:36.942Z,2.22
2023-07-09T18:08:41.762Z,6.20
2023-07-09T18:14:49.023Z,4.88
2023-07-09T18:20:53.183Z,5.00
2023-07-09T18:26:57.504Z,2.75
2023-07-09T18:33:03.886Z,3.97
2023-07-09T18:39:07.389Z,2.80
2023-07-09T18:45:15.390Z,2.13
2023-07-09T18:51:20.291Z,4.43
2023-07-09T18:57:23.851Z,4.30
2023-07-09T19:03:30.050Z,3.65
2023-07-09T19:09:35.281Z,3.15
2023-07-09T19:15:39.962Z,2.38
2023-07-09T19:21:43.571Z,3.53
2023-07-09T19:27:48.976Z,2.08
2023-07-09T19:33:52.480Z,3.92
2023-07-09T19:39:56.214Z,3.03
2023-07-09T19:46:04.124Z,2.72
2023-07-09T19:52:12.837Z,4.68
2023-07-09T19:58:16.682Z,3.55
2023-07-09T20:04:21.621Z,5.68
2023-07-09T20:10:25.133Z,3.13
2023-07-09T20:16:30.445Z,4.63
2023-07-09T20:22:35.615Z,3.55
2023-07-09T20:28:39.356Z,3.50
2023-07-09T20:34:42.932Z,6.10
2023-07-09T20:40:48.390Z,1.85
2023-07-09T20:46:51.992Z,2.10
2023-07-09T20:52:55.731Z,3.50
2023-07-09T20:59:00.562Z,3.47
2023-07-09T21:05:04.003Z,2.72
2023-07-09T21:11:07.823Z,2.47
2023-07-09T21:17:16.820Z,2.95
2023-07-09T21:23:21.227Z,4.50
2023-07-09T21:29:24.995Z,2.88
2023-07-09T21:35:30.078Z,3.67
2023-07-09T21:41:33.526Z,3.28
2023-07-09T21:47:37.037Z,4.07
2023-07-09T21:59:49.987Z,4.07
2023-07-09T22:05:53.564Z,4.75
2023-07-09T22:11:58.722Z,4.55
2023-07-09T22:18:02.890Z,5.22
2023-07-09T22:24:06.584Z,3.22
2023-07-09T22:30:12.924Z,3.63
2023-07-09T22:36:16.370Z,3.92
2023-07-09T22:42:20.355Z,2.55
2023-07-09T22:48:25.328Z,4.03
2023-07-09T22:54:29.107Z,4.53
2023-07-09T23:00:35.272Z,4.88
2023-07-09T23:06:40.256Z,4.95
2023-07-09T23:12:43.758Z,3.33
2023-07-09T23:18:47.883Z,5.43
2023-07-09T23:24:52.741Z,3.30
2023-07-09T23:30:56.232Z,5.40
2023-07-09T23:36:59.741Z,3.83
2023-07-09T23:43:04.727Z,5.07
2023-07-09T23:49:11.268Z,3.10
2023-07-09T23:55:15.394Z,3.22
